Time;durP1;ratioP1;P1;durP2;ratioP2;P2;SDS_P1;SDS_P2;PMS_P1;PMS_P2;Temp;Humidity;BMP_temperature;BMP_pressure;BME280_temperature;BME280_humidity;BME280_pressure;Samples;Min_cycle;Max_cycle;Signal;HPM_P1;HPM_P2
2023/10/15 00:00:18;;;;;;;10.98;4.15;;;5.50;99.90;;;;;;5056048;28;20272;-81
2023/10/15 00:02:51;;;;;;;11.73;3.38;;;5.50;99.90;;;;;;5023441;28;20599;-81
2023/10/15 00:05:19;;;;;;;10.65;3.95;;;5.40;99.90;;;;;;5055964;28;20195;-81
2023/10/15 00:07:47;;;;;;;9.45;4.30;;;5.30;99.90;;;;;;5055833;28;20186;-81
2023/10/15 00:10:15;;;;;;;11.07;4.05;;;5.20;99.90;;;;;;5055732;28;20177;-81
2023/10/15 00:12:43;;;;;;;9.93;3.80;;;5.20;99.90;;;;;;5037596;28;20270;-81
2023/10/15 00:15:19;;;;;;;9.07;3.72;;;5.20;99.90;;;;;;5038492;28;20185;-80
2023/10/15 00:17:53;;;;;;;16.17;4.00;;;5.20;99.90;;;;;;5037789;28;20183;-81
2023/10/15 00:20:20;;;;;;;8.40;3.80;;;5.20;99.90;;;;;;5055842;28;20260;-81
2023/10/15 00:22:47;;;;;;;10.43;4.18;;;5.10;99.90;;;;;;5021331;28;20256;-81
2023/10/15 00:25:19;;;;;;;11.65;4.53;;;5.10;99.90;;;;;;5055507;28;20206;-81
2023/10/15 00:27:54;;;;;;;9.45;5.25;;;5.10;99.90;;;;;;5055348;28;20173;-81
2023/10/15 00:30:21;;;;;;;13.23;4.72;;;5.10;99.90;;;;;;5037699;28;20184;-81
2023/10/15 00:32:49;;;;;;;6.22;3.60;;;5.00;99.90;;;;;;5037892;28;20189;-81
2023/10/15 00:35:19;;;;;;;7.78;3.90;;;5.00;99.90;;;;;;5021799;28;20181;-81
2023/10/15 00:38:19;;;;;;;13.95;4.00;;;4.90;99.90;;;;;;5055665;28;20236;-81
2023/10/15 00:40:37;;;;;;;10.30;3.50;;;4.90;99.90;;;;;;5031478;28;20193;-81
2023/10/15 00:43:04;;;;;;;6.23;3.93;;;5.00;99.90;;;;;;5022669;28;20192;-81
2023/10/15 00:45:39;;;;;;;11.55;4.00;;;5.00;99.90;;;;;;5055686;28;20411;-80
2023/10/15 00:50:38;;;;;;;7.90;3.80;;;4.90;99.90;;;;;;5054803;28;20185;-81
2023/10/15 00:53:21;;;;;;;12.32;4.05;;;4.90;99.90;;;;;;5040739;28;20538;-81
2023/10/15 00:55:50;;;;;;;10.00;3.45;;;5.10;99.90;;;;;;5040784;28;20213;-80
2023/10/15 00:58:21;;;;;;;11.00;3.70;;;5.00;99.90;;;;;;5059226;28;20173;-81
2023/10/15 01:03:19;;;;;;;8.40;3.90;;;5.00;99.90;;;;;;5041398;28;20215;-81
2023/10/15 01:05:53;;;;;;;11.30;4.50;;;4.90;99.90;;;;;;5040857;28;20247;-81
2023/10/15 01:08:25;;;;;;;8.70;4.28;;;4.90;99.90;;;;;;5040802;28;20189;-81
2023/10/15 01:11:18;;;;;;;17.85;4.72;;;4.90;99.90;;;;;;5041332;28;20181;-82
2023/10/15 01:13:43;;;;;;;8.13;4.10;;;4.90;99.90;;;;;;5058898;28;20216;-81
2023/10/15 01:16:13;;;;;;;9.50;4.13;;;4.80;99.90;;;;;;5040740;28;20232;-81
2023/10/15 01:18:39;;;;;;;11.68;4.70;;;4.80;99.90;;;;;;5040991;28;20425;-81
2023/10/15 01:21:09;;;;;;;11.68;4.10;;;4.70;99.90;;;;;;5058927;28;20197;-81
2023/10/15 01:26:14;;;;;;;17.90;4.78;;;4.70;99.90;;;;;;5042177;28;20186;-81
2023/10/15 01:28:42;;;;;;;10.50;4.10;;;4.60;99.90;;;;;;5040700;28;20212;-81
2023/10/15 01:31:08;;;;;;;7.78;3.42;;;4.60;99.90;;;;;;5025075;28;20174;-80
2023/10/15 01:33:46;;;;;;;12.37;4.37;;;4.60;99.90;;;;;;5041053;28;20250;-81
2023/10/15 01:36:19;;;;;;;10.43;4.95;;;4.60;99.90;;;;;;5028334;28;20460;-81
2023/10/15 01:38:45;;;;;;;12.60;3.83;;;4.60;99.90;;;;;;5057857;28;20233;-81
2023/10/15 01:41:14;;;;;;;19.45;5.55;;;4.60;99.90;;;;;;5008146;28;20203;-81
2023/10/15 01:43:41;;;;;;;24.80;16.17;;;4.60;99.90;;;;;;5027918;28;20182;-81
2023/10/15 01:48:53;;;;;;;24.05;12.88;;;4.60;99.90;;;;;;4974276;28;20190;-81
2023/10/15 01:51:18;;;;;;;15.27;9.50;;;4.60;99.90;;;;;;5020687;28;20206;-81
2023/10/15 01:53:45;;;;;;;15.07;6.63;;;4.60;99.90;;;;;;5004568;28;20194;-81
2023/10/15 01:56:17;;;;;;;17.05;7.53;;;4.50;99.90;;;;;;5004160;28;21010;-81
2023/10/15 01:58:44;;;;;;;15.30;5.53;;;4.50;99.90;;;;;;5038347;28;20175;-81
2023/10/15 02:01:20;;;;;;;18.63;7.25;;;4.50;99.90;;;;;;5020925;28;20175;-81
2023/10/15 02:03:47;;;;;;;15.13;8.18;;;4.40;99.90;;;;;;5019965;28;20182;-81
2023/10/15 02:06:16;;;;;;;16.08;6.60;;;4.40;99.90;;;;;;5020323;28;20236;-80
2023/10/15 02:08:45;;;;;;;9.63;6.30;;;4.40;99.90;;;;;;5020626;28;20179;-80
2023/10/15 02:11:15;;;;;;;11.90;6.15;;;4.40;99.90;;;;;;5030797;28;20605;-81
2023/10/15 02:13:47;;;;;;;8.95;5.03;;;4.40;99.90;;;;;;5058009;28;20165;-80
2023/10/15 02:16:25;;;;;;;10.00;5.43;;;4.30;99.90;;;;;;5040012;28;20209;-80
2023/10/15 02:18:51;;;;;;;19.52;5.75;;;4.40;99.90;;;;;;5025659;28;20252;-81
2023/10/15 02:21:17;;;;;;;17.90;5.30;;;4.30;99.90;;;;;;5040454;28;20216;-81
2023/10/15 02:23:52;;;;;;;14.68;6.50;;;4.40;99.90;;;;;;5040397;28;20191;-80
2023/10/15 02:26:23;;;;;;;13.43;5.45;;;4.30;99.90;;;;;;5058485;28;20197;-81
2023/10/15 02:28:53;;;;;;;6.85;4.65;;;4.30;99.90;;;;;;5058394;28;20176;-80
2023/10/15 02:31:22;;;;;;;15.88;4.85;;;4.20;99.90;;;;;;5057717;28;20169;-80
2023/10/15 02:33:48;;;;;;;10.20;5.13;;;4.20;99.90;;;;;;5057995;28;20188;-80
2023/10/15 02:36:17;;;;;;;10.13;4.35;;;4.20;99.90;;;;;;5057781;28;20208;-80
2023/10/15 02:38:53;;;;;;;15.80;4.95;;;4.20;99.90;;;;;;5039687;28;20600;-80
2023/10/15 02:41:30;;;;;;;13.80;5.10;;;4.20;99.90;;;;;;5039885;28;20183;-80
2023/10/15 02:43:56;;;;;;;16.02;4.63;;;4.30;99.90;;;;;;5057237;28;20179;-80
2023/10/15 02:46:35;;;;;;;13.40;4.50;;;4.40;99.90;;;;;;5040195;28;20620;-80
2023/10/15 02:49:01;;;;;;;11.13;4.75;;;4.40;99.90;;;;;;5025047;28;20440;-81
2023/10/15 02:51:27;;;;;;;10.97;4.73;;;4.50;99.90;;;;;;5039793;28;20188;-81
2023/10/15 02:53:54;;;;;;;8.67;4.03;;;4.50;99.90;;;;;;5056949;28;20625;-81
2023/10/15 02:56:21;;;;;;;20.27;5.15;;;4.50;99.90;;;;;;5059357;28;20202;-80
2023/10/15 02:58:47;;;;;;;11.13;5.20;;;4.50;99.90;;;;;;5030460;28;20188;-81
2023/10/15 03:01:17;;;;;;;16.53;5.10;;;4.60;99.90;;;;;;5024282;28;20188;-81
2023/10/15 03:03:48;;;;;;;13.48;4.72;;;4.80;99.90;;;;;;5039364;28;20187;-81
2023/10/15 03:06:18;;;;;;;16.80;6.32;;;5.30;99.90;;;;;;5039485;28;20544;-81
2023/10/15 03:08:46;;;;;;;8.15;5.30;;;5.40;99.90;;;;;;5022450;28;20196;-81
2023/10/15 03:11:12;;;;;;;12.60;5.25;;;5.30;99.90;;;;;;5039540;28;20220;-81
2023/10/15 03:13:49;;;;;;;14.07;5.88;;;5.50;99.90;;;;;;5056678;28;20191;-81
2023/10/15 03:16:18;;;;;;;15.40;5.93;;;5.90;99.90;;;;;;5056008;28;20203;-81
2023/10/15 03:18:48;;;;;;;10.75;5.22;;;6.10;99.90;;;;;;5038983;28;20180;-81
2023/10/15 03:21:26;;;;;;;18.77;6.00;;;6.20;99.90;;;;;;5038980;28;20181;-81
2023/10/15 03:23:55;;;;;;;12.63;5.65;;;6.40;99.90;;;;;;5023160;28;20192;-82
2023/10/15 03:26:22;;;;;;;16.17;6.07;;;6.50;99.90;;;;;;5038569;28;20177;-81
2023/10/15 03:28:51;;;;;;;15.98;6.38;;;6.60;99.90;;;;;;5056360;28;20172;-81
2023/10/15 03:31:23;;;;;;;17.63;6.50;;;6.60;99.90;;;;;;5056517;28;20197;-81
2023/10/15 03:36:42;;;;;;;11.57;5.75;;;6.70;99.90;;;;;;5056100;28;20651;-82
2023/10/15 03:39:14;;;;;;;18.50;6.20;;;6.80;99.90;;;;;;5023869;28;20594;-81
2023/10/15 03:41:40;;;;;;;22.77;8.07;;;6.90;99.90;;;;;;5039722;28;20210;-81
2023/10/15 03:44:06;;;;;;;17.90;6.90;;;6.90;99.90;;;;;;5021755;28;20185;-82
2023/10/15 03:46:34;;;;;;;17.80;6.30;;;7.00;99.90;;;;;;5038078;28;20286;-81
2023/10/15 03:49:07;;;;;;;16.08;6.00;;;7.00;99.90;;;;;;5011200;28;20522;-81
2023/10/15 03:51:47;;;;;;;21.35;8.63;;;7.10;99.90;;;;;;5040006;28;20193;-81
2023/10/15 03:54:13;;;;;;;19.73;6.78;;;7.00;99.90;;;;;;5037978;28;20185;-82
2023/10/15 03:56:43;;;;;;;21.97;8.10;;;7.00;99.90;;;;;;5038038;28;20664;-81
2023/10/15 03:59:11;;;;;;;20.92;7.47;;;7.00;99.90;;;;;;5056191;28;20172;-82
2023/10/15 04:01:43;;;;;;;14.77;6.40;;;6.90;99.90;;;;;;5022505;28;20223;-82
2023/10/15 04:04:09;;;;;;;22.48;7.88;;;6.90;99.90;;;;;;5039428;28;20173;-82
2023/10/15 04:06:35;;;;;;;19.42;7.35;;;6.90;99.90;;;;;;5056168;28;20185;-81
2023/10/15 04:11:42;;;;;;;14.07;6.85;;;7.00;99.90;;;;;;5055769;28;20437;-82
2023/10/15 04:14:13;;;;;;;14.73;5.97;;;7.00;99.90;;;;;;5037479;28;20181;-81
2023/10/15 04:16:41;;;;;;;18.63;7.53;;;6.90;99.90;;;;;;5038239;28;20209;-81
2023/10/15 04:19:07;;;;;;;16.02;5.68;;;7.00;99.90;;;;;;5021754;28;20548;-81
2023/10/15 04:21:38;;;;;;;11.65;5.57;;;7.00;99.90;;;;;;5027737;28;20189;-82
2023/10/15 04:24:07;;;;;;;20.77;7.30;;;7.00;99.90;;;;;;5037471;28;20209;-82
2023/10/15 04:26:40;;;;;;;14.48;6.25;;;7.00;99.90;;;;;;5038452;28;20298;-83
2023/10/15 04:29:16;;;;;;;17.17;6.22;;;7.10;99.90;;;;;;5030867;28;20193;-82
2023/10/15 04:31:51;;;;;;;17.45;6.00;;;7.00;99.90;;;;;;5022175;28;20764;-82
2023/10/15 04:34:18;;;;;;;13.60;5.60;;;7.10;99.90;;;;;;5021211;28;20181;-82
2023/10/15 04:36:45;;;;;;;11.93;5.10;;;7.10;99.90;;;;;;5030647;28;20237;-82
2023/10/15 04:39:16;;;;;;;11.05;5.20;;;7.10;99.90;;;;;;5041746;28;20223;-82
2023/10/15 04:41:41;;;;;;;11.27;5.45;;;7.10;99.90;;;;;;5042610;28;20512;-82
2023/10/15 04:44:12;;;;;;;12.00;5.20;;;7.10;99.90;;;;;;5059209;28;20176;-82
2023/10/15 04:46:41;;;;;;;15.60;5.00;;;7.10;99.90;;;;;;5059959;28;20222;-82
2023/10/15 04:49:07;;;;;;;14.75;6.13;;;7.20;99.90;;;;;;5026983;28;20186;-82
2023/10/15 04:51:42;;;;;;;12.70;5.00;;;7.20;99.90;;;;;;5017874;28;20217;-82
2023/10/15 04:54:09;;;;;;;13.52;5.85;;;7.20;99.90;;;;;;5025576;28;20935;-81
2023/10/15 04:56:35;;;;;;;11.68;5.13;;;7.20;99.90;;;;;;5024981;28;20219;-81
2023/10/15 04:59:00;;;;;;;10.50;5.57;;;7.20;99.90;;;;;;5024519;28;20174;-81
2023/10/15 05:01:26;;;;;;;13.47;4.90;;;7.20;99.90;;;;;;5024978;28;20215;-81
2023/10/15 05:03:52;;;;;;;8.50;4.30;;;7.20;99.90;;;;;;5041142;28;20568;-81
2023/10/15 05:06:17;;;;;;;6.37;4.03;;;7.20;99.90;;;;;;5024634;28;20654;-81
2023/10/15 05:08:47;;;;;;;7.30;4.70;;;7.00;99.90;;;;;;5041347;28;20474;-81
2023/10/15 05:11:13;;;;;;;6.80;4.07;;;6.90;99.90;;;;;;5024754;28;20200;-81
2023/10/15 05:13:42;;;;;;;10.00;3.93;;;6.90;99.90;;;;;;5047055;28;20177;-81
2023/10/15 05:16:08;;;;;;;7.43;3.67;;;6.90;99.90;;;;;;5063385;28;20233;-80
2023/10/15 05:18:34;;;;;;;10.00;3.80;;;6.90;99.90;;;;;;5041387;28;20196;-81
2023/10/15 05:21:02;;;;;;;6.60;3.87;;;6.80;99.90;;;;;;5041145;28;20427;-81
2023/10/15 05:23:28;;;;;;;12.23;4.38;;;6.80;99.90;;;;;;5059275;28;20404;-81
2023/10/15 05:25:54;;;;;;;17.47;3.87;;;6.80;99.90;;;;;;5021217;28;20209;-81
2023/10/15 05:28:20;;;;;;;12.07;3.70;;;6.70;99.90;;;;;;5021622;28;20779;-81
2023/10/15 05:30:46;;;;;;;10.13;4.60;;;6.60;99.90;;;;;;5004293;28;20178;-81
2023/10/15 05:33:12;;;;;;;8.07;3.63;;;6.60;99.90;;;;;;5038900;28;20190;-81
2023/10/15 05:35:40;;;;;;;8.07;3.20;;;6.70;99.90;;;;;;5021643;28;20222;-81
2023/10/15 05:38:08;;;;;;;4.28;3.20;;;6.70;99.90;;;;;;5019798;28;20230;-81
2023/10/15 05:40:34;;;;;;;12.18;3.20;;;6.90;99.90;;;;;;5004340;28;20273;-81
2023/10/15 05:43:00;;;;;;;7.47;3.65;;;6.90;99.90;;;;;;5003796;28;20182;-81
2023/10/15 05:45:26;;;;;;;6.27;2.97;;;6.90;99.90;;;;;;5003834;28;20185;-81
2023/10/15 05:47:51;;;;;;;5.43;3.00;;;6.90;99.90;;;;;;5020329;28;20197;-81
2023/10/15 05:50:17;;;;;;;9.63;3.87;;;7.00;99.90;;;;;;5019807;28;20545;-81
2023/10/15 05:52:43;;;;;;;9.63;2.92;;;7.00;99.90;;;;;;5001778;28;20198;-82
2023/10/15 05:55:11;;;;;;;9.17;3.07;;;7.00;99.90;;;;;;5004344;28;20253;-83
2023/10/15 05:57:37;;;;;;;4.55;2.70;;;7.10;99.90;;;;;;5007720;28;20231;-83
2023/10/15 06:00:17;;;;;;;7.32;3.25;;;7.10;99.90;;;;;;5047072;28;20193;-83
2023/10/15 06:02:56;;;;;;;6.03;3.00;;;7.10;99.90;;;;;;5006779;28;20237;-84
2023/10/15 06:05:22;;;;;;;3.90;2.28;;;7.00;99.90;;;;;;5004516;28;20185;-83
2023/10/15 06:07:51;;;;;;;5.32;2.40;;;7.00;99.90;;;;;;5020100;28;20261;-84
2023/10/15 06:10:16;;;;;;;5.00;2.72;;;7.00;99.90;;;;;;5020199;28;20227;-83
2023/10/15 06:12:42;;;;;;;5.63;3.23;;;7.00;99.90;;;;;;5021658;28;20182;-84
2023/10/15 06:15:09;;;;;;;9.43;2.97;;;7.00;99.90;;;;;;5020912;28;20243;-83
2023/10/15 06:17:36;;;;;;;5.28;2.75;;;7.00;99.90;;;;;;5037117;28;20536;-84
2023/10/15 06:20:12;;;;;;;6.43;3.15;;;7.00;99.90;;;;;;5026137;28;20204;-85
2023/10/15 06:22:41;;;;;;;6.20;3.10;;;6.90;99.90;;;;;;5057276;28;20683;-85
2023/10/15 06:25:08;;;;;;;7.15;3.17;;;6.90;99.90;;;;;;5056426;28;20226;-85
2023/10/15 06:27:35;;;;;;;9.93;3.85;;;6.90;99.90;;;;;;5039160;28;20184;-86
2023/10/15 06:30:05;;;;;;;5.32;3.40;;;7.00;99.90;;;;;;5038655;28;20184;-85
2023/10/15 06:32:31;;;;;;;3.67;3.10;;;7.00;99.90;;;;;;5022860;28;20555;-86
2023/10/15 06:34:57;;;;;;;4.32;3.50;;;7.00;99.90;;;;;;5056193;28;20181;-86
2023/10/15 06:37:23;;;;;;;6.30;3.30;;;7.00;99.90;;;;;;5060086;28;20327;-86
2023/10/15 06:39:48;;;;;;;4.80;4.10;;;7.00;99.90;;;;;;5038639;28;20930;-85
2023/10/15 06:42:14;;;;;;;6.60;3.90;;;7.00;99.90;;;;;;5037766;28;20181;-85
2023/10/15 06:44:39;;;;;;;7.00;5.27;;;7.10;99.90;;;;;;5038085;28;20549;-85
2023/10/15 06:47:05;;;;;;;6.17;4.20;;;7.10;99.90;;;;;;5005028;28;20181;-85
2023/10/15 06:49:30;;;;;;;8.17;4.60;;;7.00;99.90;;;;;;5055875;28;20237;-85
2023/10/15 06:51:56;;;;;;;8.43;4.53;;;7.00;99.90;;;;;;5020901;28;20528;-85
2023/10/15 06:54:21;;;;;;;9.47;4.70;;;7.00;99.90;;;;;;5021310;28;20181;-85
2023/10/15 06:56:47;;;;;;;6.10;4.50;;;7.10;99.90;;;;;;5005103;28;20204;-86
2023/10/15 06:59:13;;;;;;;4.97;4.40;;;7.10;99.90;;;;;;5038123;28;20276;-88
2023/10/15 07:01:38;;;;;;;7.10;5.13;;;7.10;99.90;;;;;;5005237;28;20671;-87
2023/10/15 07:04:07;;;;;;;9.70;5.30;;;7.00;99.90;;;;;;5055290;28;20184;-87
2023/10/15 07:06:33;;;;;;;6.55;5.10;;;7.00;99.90;;;;;;5005692;28;20434;-87
2023/10/15 07:08:59;;;;;;;5.80;4.72;;;7.00;99.90;;;;;;5055738;28;20178;-86
2023/10/15 07:11:26;;;;;;;7.47;5.53;;;7.10;99.90;;;;;;5021327;28;20533;-86
2023/10/15 07:13:52;;;;;;;9.18;5.70;;;7.00;99.90;;;;;;5038340;28;20177;-86
2023/10/15 07:16:19;;;;;;;4.90;4.50;;;7.00;99.90;;;;;;5037924;28;20227;-85
2023/10/15 07:18:45;;;;;;;6.53;5.38;;;6.90;99.90;;;;;;5038233;28;20185;-85
2023/10/15 07:21:11;;;;;;;7.93;6.20;;;7.00;99.90;;;;;;5020938;28;20629;-85
2023/10/15 07:23:37;;;;;;;6.63;4.83;;;7.00;99.90;;;;;;5021525;28;20447;-85
2023/10/15 07:26:03;;;;;;;6.47;5.88;;;7.00;99.90;;;;;;5056412;28;20458;-89
2023/10/15 07:28:29;;;;;;;10.53;5.63;;;7.00;99.90;;;;;;5027956;28;20185;-90
2023/10/15 07:30:55;;;;;;;11.83;5.00;;;7.10;99.90;;;;;;5066540;28;20773;-85
2023/10/15 07:33:21;;;;;;;8.45;6.07;;;7.20;99.90;;;;;;5041213;28;20835;-88
2023/10/15 07:35:48;;;;;;;8.00;6.20;;;7.20;99.90;;;;;;5033673;28;20205;-90
2023/10/15 07:38:14;;;;;;;12.20;6.03;;;7.20;99.90;;;;;;5019292;28;20814;-89
2023/10/15 07:40:41;;;;;;;5.28;4.10;;;7.30;99.90;;;;;;5036075;28;20581;-89
2023/10/15 07:43:08;;;;;;;10.05;5.95;;;7.40;99.90;;;;;;5017184;28;20277;-89
2023/10/15 07:45:37;;;;;;;6.45;5.05;;;7.40;99.90;;;;;;5035306;28;20197;-89
2023/10/15 07:48:05;;;;;;;11.98;5.13;;;7.50;99.90;;;;;;5001939;28;20192;-88
2023/10/15 07:50:34;;;;;;;7.30;4.75;;;7.50;99.90;;;;;;5020745;28;20217;-89
2023/10/15 07:52:59;;;;;;;6.25;4.53;;;7.60;99.90;;;;;;5018578;28;20178;-88
2023/10/15 07:55:26;;;;;;;5.70;4.60;;;7.80;99.90;;;;;;5017309;28;20253;-88
2023/10/15 07:57:52;;;;;;;6.05;4.20;;;8.00;99.90;;;;;;5001733;28;20467;-87
2023/10/15 08:00:29;;;;;;;6.85;3.85;;;8.00;99.90;;;;;;5034675;28;20273;-88
2023/10/15 08:02:58;;;;;;;6.75;3.50;;;8.00;99.90;;;;;;5034765;28;20177;-88
2023/10/15 08:05:25;;;;;;;5.78;3.33;;;8.20;99.90;;;;;;5012433;28;20186;-89
2023/10/15 08:07:51;;;;;;;6.10;3.58;;;8.20;99.90;;;;;;5034811;28;20228;-87
2023/10/15 08:10:20;;;;;;;5.25;3.08;;;8.10;99.90;;;;;;5016155;28;20186;-86
2023/10/15 08:12:48;;;;;;;4.18;3.00;;;8.00;99.90;;;;;;5016719;28;20185;-87
2023/10/15 08:15:14;;;;;;;5.72;3.10;;;8.10;99.90;;;;;;5034782;28;20174;-88
2023/10/15 08:17:40;;;;;;;3.13;2.53;;;8.10;99.90;;;;;;5001200;28;20225;-89
2023/10/15 08:20:09;;;;;;;8.67;3.20;;;8.00;99.90;;;;;;5018526;28;20424;-91
2023/10/15 08:22:35;;;;;;;10.43;3.22;;;8.00;99.90;;;;;;5022033;28;20174;-91
2023/10/15 08:25:00;;;;;;;4.65;2.90;;;7.90;99.90;;;;;;5020649;28;20547;-90
2023/10/15 08:27:26;;;;;;;7.17;2.73;;;7.90;99.90;;;;;;5019684;28;20285;-88
2023/10/15 08:29:52;;;;;;;5.83;2.90;;;7.90;99.90;;;;;;5038344;28;20197;-90
2023/10/15 08:32:17;;;;;;;3.73;2.50;;;7.80;99.90;;;;;;5056770;28;20985;-90
2023/10/15 08:34:47;;;;;;;2.90;2.43;;;7.70;99.90;;;;;;5039431;28;20185;-92
2023/10/15 08:37:14;;;;;;;4.53;1.90;;;7.60;99.90;;;;;;5056070;28;20561;-91
2023/10/15 08:39:40;;;;;;;2.10;1.70;;;7.50;99.90;;;;;;5039884;28;20702;-91
2023/10/15 08:42:16;;;;;;;2.37;1.33;;;7.50;99.90;;;;;;5064529;28;20256;-91
2023/10/15 08:44:43;;;;;;;3.70;1.33;;;7.50;99.90;;;;;;5027962;28;20934;-92
2023/10/15 08:47:11;;;;;;;1.33;0.95;;;7.40;99.90;;;;;;5042280;28;20188;-92
2023/10/15 08:49:45;;;;;;;2.00;1.45;;;7.40;99.90;;;;;;5026455;28;20189;-91
2023/10/15 08:52:11;;;;;;;3.92;1.58;;;7.50;99.90;;;;;;5059052;28;20176;-91
2023/10/15 08:54:39;;;;;;;3.88;1.50;;;7.40;99.90;;;;;;5030158;28;20190;-91
2023/10/15 08:57:07;;;;;;;2.00;1.55;;;7.50;99.90;;;;;;5036530;28;20309;-93
2023/10/15 08:59:33;;;;;;;1.80;1.00;;;7.50;99.90;;;;;;5039866;28;20188;-93
2023/10/15 09:01:59;;;;;;;3.80;1.17;;;7.50;99.90;;;;;;5040193;28;20555;-93
2023/10/15 09:04:27;;;;;;;1.10;1.00;;;7.50;99.90;;;;;;5057735;28;20420;-94
2023/10/15 09:06:53;;;;;;;2.67;1.40;;;7.60;99.90;;;;;;5023884;28;20846;-94
2023/10/15 09:09:19;;;;;;;1.00;0.90;;;7.60;99.90;;;;;;5039717;28;20189;-94
2023/10/15 09:11:45;;;;;;;1.30;1.07;;;7.60;99.90;;;;;;5023461;28;20261;-94
2023/10/15 09:14:13;;;;;;;1.50;1.10;;;7.60;99.90;;;;;;5040776;28;20188;-93
2023/10/15 09:16:47;;;;;;;1.75;1.42;;;7.60;99.90;;;;;;5026731;28;20241;-93
2023/10/15 09:19:13;;;;;;;2.10;1.17;;;7.60;99.90;;;;;;5060903;28;20283;-93
2023/10/15 09:21:39;;;;;;;1.52;1.23;;;7.80;99.90;;;;;;5044357;28;20214;-94
2023/10/15 09:24:06;;;;;;;3.97;1.30;;;7.80;99.90;;;;;;5042286;28;20189;-93
2023/10/15 09:26:37;;;;;;;1.52;1.10;;;8.00;99.90;;;;;;5059718;28;20284;-93
2023/10/15 09:29:19;;;;;;;2.15;1.45;;;8.10;99.90;;;;;;5063765;28;20230;-89
2023/10/15 09:31:45;;;;;;;1.25;1.15;;;8.30;99.90;;;;;;5048912;28;20173;-94
2023/10/15 09:34:13;;;;;;;1.30;1.20;;;8.40;99.90;;;;;;5063815;28;20184;-91
2023/10/15 09:36:39;;;;;;;2.20;1.30;;;8.80;99.90;;;;;;5025637;28;20224;-93
2023/10/15 09:39:12;;;;;;;1.70;1.30;;;9.30;99.90;;;;;;5019064;28;20641;-92
2023/10/15 09:41:44;;;;;;;2.78;1.05;;;9.30;99.90;;;;;;5019237;28;20175;-91
2023/10/15 09:44:16;;;;;;;3.55;1.60;;;9.30;99.90;;;;;;5008793;28;20191;-89
2023/10/15 09:46:45;;;;;;;2.78;1.48;;;9.20;99.90;;;;;;5006277;28;20186;-87
2023/10/15 09:49:13;;;;;;;2.58;1.08;;;9.20;99.90;;;;;;5016598;28;20183;-89
2023/10/15 09:51:40;;;;;;;7.22;4.53;;;9.20;99.90;;;;;;5000711;28;20538;-89
2023/10/15 09:54:13;;;;;;;3.40;1.75;;;9.20;99.90;;;;;;5018080;28;20183;-88
2023/10/15 09:56:41;;;;;;;2.95;1.67;;;9.10;99.90;;;;;;5017927;28;20690;-88
2023/10/15 09:59:08;;;;;;;4.25;2.97;;;9.10;99.90;;;;;;5017943;28;20265;-86
2023/10/15 10:01:36;;;;;;;3.05;1.40;;;9.10;99.90;;;;;;5000175;28;20183;-87
2023/10/15 10:04:19;;;;;;;5.15;1.55;;;9.40;99.90;;;;;;5017559;28;20666;-88
2023/10/15 10:06:48;;;;;;;3.70;1.85;;;9.40;99.90;;;;;;5016905;28;20218;-87
2023/10/15 10:09:51;;;;;;;3.45;2.10;;;9.40;99.90;;;;;;5017107;28;20270;-86
2023/10/15 10:12:51;;;;;;;3.08;2.03;;;9.50;99.90;;;;;;5016987;28;20201;-86
2023/10/15 10:15:28;;;;;;;4.25;2.25;;;9.40;99.90;;;;;;5015011;28;20191;-87
2023/10/15 10:17:55;;;;;;;3.45;2.03;;;9.20;99.90;;;;;;5016698;28;20202;-85
2023/10/15 10:20:30;;;;;;;4.10;2.00;;;9.10;99.90;;;;;;5016504;28;20187;-84
2023/10/15 10:23:02;;;;;;;5.88;2.60;;;9.00;99.90;;;;;;5017001;28;20309;-84
2023/10/15 10:25:30;;;;;;;9.70;2.10;;;8.90;99.90;;;;;;5016228;28;20167;-83
2023/10/15 10:28:13;;;;;;;4.90;2.00;;;8.90;99.90;;;;;;5016171;28;20217;-84
2023/10/15 10:30:50;;;;;;;6.38;2.53;;;9.00;99.90;;;;;;5015496;28;20187;-84
2023/10/15 10:33:41;;;;;;;2.38;2.17;;;9.00;99.90;;;;;;5016704;28;20554;-83
2023/10/15 10:36:14;;;;;;;6.15;2.70;;;9.00;99.90;;;;;;4996682;28;20226;-83
2023/10/15 10:38:41;;;;;;;2.97;2.67;;;9.00;99.90;;;;;;5010717;28;20235;-84
2023/10/15 10:41:13;;;;;;;5.45;3.60;;;9.10;99.90;;;;;;5019023;28;20190;-83
2023/10/15 10:43:41;;;;;;;5.78;3.58;;;9.20;99.90;;;;;;5034951;28;20247;-85
2023/10/15 10:46:07;;;;;;;3.40;2.88;;;9.20;99.90;;;;;;5036251;28;20228;-83
2023/10/15 10:48:34;;;;;;;5.13;2.70;;;9.30;99.90;;;;;;5036629;28;20190;-83
2023/10/15 10:51:21;;;;;;;9.35;2.70;;;9.30;99.90;;;;;;5036507;28;20638;-84
2023/10/15 10:53:55;;;;;;;3.75;2.70;;;9.20;99.90;;;;;;5036517;28;20213;-84
2023/10/15 10:56:44;;;;;;;4.80;2.55;;;9.10;99.90;;;;;;5036448;28;20245;-84
2023/10/15 10:59:12;;;;;;;3.30;2.50;;;9.00;99.90;;;;;;5035043;28;20186;-84
2023/10/15 11:01:39;;;;;;;6.25;3.33;;;9.00;99.90;;;;;;5036590;28;20175;-84
2023/10/15 11:04:09;;;;;;;9.35;2.97;;;9.00;99.90;;;;;;5035340;28;20194;-84
2023/10/15 11:06:36;;;;;;;3.33;2.75;;;8.90;99.90;;;;;;5036380;28;20584;-83
2023/10/15 11:09:28;;;;;;;4.88;3.10;;;9.00;99.90;;;;;;5036158;28;20182;-84
2023/10/15 11:11:53;;;;;;;4.93;3.38;;;9.10;99.90;;;;;;5035466;28;20316;-83
2023/10/15 11:14:27;;;;;;;8.63;2.88;;;9.10;99.90;;;;;;5036530;28;20201;-82
2023/10/15 11:16:55;;;;;;;4.18;2.80;;;9.20;99.90;;;;;;5034937;28;20677;-83
2023/10/15 11:19:26;;;;;;;3.95;1.90;;;9.10;99.90;;;;;;5036822;28;20181;-83
2023/10/15 11:21:52;;;;;;;11.48;2.60;;;9.10;99.90;;;;;;5036001;28;20259;-84
2023/10/15 11:24:20;;;;;;;5.93;2.40;;;9.10;99.90;;;;;;5035820;28;20195;-83
2023/10/15 11:26:46;;;;;;;8.43;2.10;;;9.00;99.90;;;;;;5034392;28;20182;-83
2023/10/15 11:29:13;;;;;;;5.05;2.10;;;9.10;99.90;;;;;;5018530;28;20193;-83
2023/10/15 11:31:44;;;;;;;1.95;1.40;;;9.10;99.90;;;;;;5036375;28;20186;-83
2023/10/15 11:34:19;;;;;;;3.80;1.63;;;9.00;99.90;;;;;;5035905;28;20212;-82
2023/10/15 11:36:48;;;;;;;5.30;1.38;;;9.00;99.90;;;;;;5035367;28;20331;-83
2023/10/15 11:39:25;;;;;;;1.80;1.27;;;9.00;99.90;;;;;;5036662;28;20235;-83
2023/10/15 11:41:56;;;;;;;3.10;1.25;;;9.00;99.90;;;;;;5037206;28;20252;-81
2023/10/15 11:44:31;;;;;;;3.28;1.63;;;8.90;99.90;;;;;;5018623;28;20186;-83
2023/10/15 11:47:09;;;;;;;4.22;1.70;;;8.80;99.90;;;;;;5035046;28;20213;-83
2023/10/15 11:49:38;;;;;;;1.25;1.10;;;9.20;99.90;;;;;;5036305;28;20245;-83
2023/10/15 11:52:05;;;;;;;1.80;1.20;;;9.50;99.90;;;;;;5034849;28;20277;-80
2023/10/15 11:54:32;;;;;;;2.80;1.35;;;10.00;99.90;;;;;;5035166;28;20597;-83
2023/10/15 11:57:04;;;;;;;1.88;1.23;;;10.50;99.90;;;;;;5042281;28;20210;-83
2023/10/15 11:59:31;;;;;;;4.03;1.65;;;11.00;99.90;;;;;;5048828;28;20174;-83
2023/10/15 12:02:00;;;;;;;3.90;1.40;;;11.00;99.90;;;;;;5039152;28;20224;-83
2023/10/15 12:04:26;;;;;;;3.70;1.73;;;10.80;99.90;;;;;;5039346;28;20173;-82
2023/10/15 12:06:52;;;;;;;1.95;1.50;;;10.40;99.90;;;;;;5037318;28;20308;-82
2023/10/15 12:09:24;;;;;;;3.78;1.67;;;10.10;99.90;;;;;;5018748;28;20209;-82
2023/10/15 12:11:53;;;;;;;1.70;1.00;;;10.00;99.90;;;;;;5037346;28;20174;-83
2023/10/15 12:14:19;;;;;;;1.65;1.10;;;9.90;99.90;;;;;;5015006;28;20229;-81
2023/10/15 12:16:45;;;;;;;3.40;1.00;;;10.20;99.90;;;;;;5016512;28;20211;-81
2023/10/15 12:19:10;;;;;;;4.30;1.30;;;10.40;99.90;;;;;;5016015;28;20198;-82
2023/10/15 12:21:40;;;;;;;3.27;1.07;;;10.70;99.90;;;;;;5016233;28;20194;-83
2023/10/15 12:24:07;;;;;;;1.92;1.00;;;10.90;99.90;;;;;;5026447;28;20185;-81
2023/10/15 12:26:33;;;;;;;5.77;1.43;;;11.30;99.90;;;;;;5035998;28;20182;-81
2023/10/15 12:28:59;;;;;;;4.20;1.10;;;11.30;99.90;;;;;;5034208;28;20416;-81
2023/10/15 12:31:24;;;;;;;4.70;1.23;;;11.20;99.90;;;;;;5035533;28;20261;-80
2023/10/15 12:33:50;;;;;;;3.83;1.40;;;10.90;99.90;;;;;;5035859;28;20543;-81
2023/10/15 12:36:16;;;;;;;2.10;1.13;;;10.90;99.90;;;;;;5034931;28;20464;-81
2023/10/15 12:38:43;;;;;;;2.03;0.90;;;10.90;99.90;;;;;;5051352;28;20225;-82
2023/10/15 12:41:09;;;;;;;2.30;0.90;;;10.90;99.90;;;;;;5021847;28;20192;-82
2023/10/15 12:43:36;;;;;;;3.10;1.10;;;10.60;99.90;;;;;;5055148;28;20200;-81
2023/10/15 12:46:02;;;;;;;1.38;0.85;;;10.70;99.90;;;;;;5037303;28;20197;-81
2023/10/15 12:48:29;;;;;;;2.47;1.25;;;10.80;99.90;;;;;;5039592;28;20181;-80
2023/10/15 12:50:56;;;;;;;3.30;1.13;;;10.90;99.90;;;;;;5041330;28;20200;-81
2023/10/15 12:53:22;;;;;;;1.83;0.90;;;11.20;99.90;;;;;;5024808;28;20201;-82
2023/10/15 12:55:48;;;;;;;4.90;1.30;;;11.60;99.90;;;;;;5025247;28;20636;-80
2023/10/15 12:58:15;;;;;;;2.80;1.20;;;11.70;99.90;;;;;;5025137;28;20251;-81
2023/10/15 13:00:43;;;;;;;1.75;1.13;;;11.80;99.90;;;;;;5025552;28;20173;-82
2023/10/15 13:03:09;;;;;;;6.25;1.20;;;12.10;99.90;;;;;;5058983;28;20227;-82
2023/10/15 13:05:35;;;;;;;1.27;0.80;;;12.10;99.90;;;;;;5058670;28;20173;-81
2023/10/15 13:08:01;;;;;;;3.60;1.00;;;12.00;99.90;;;;;;5041065;28;20582;-82
2023/10/15 13:10:27;;;;;;;6.10;1.80;;;12.30;99.90;;;;;;5058229;28;20178;-81
2023/10/15 13:12:54;;;;;;;3.10;1.20;;;12.50;99.90;;;;;;5058311;28;20219;-82
2023/10/15 13:15:21;;;;;;;3.93;1.10;;;12.80;99.90;;;;;;5024884;28;20435;-82
2023/10/15 13:17:48;;;;;;;1.43;0.90;;;12.40;99.90;;;;;;5040380;28;20463;-84